createdAt,value
2023-03-02T00:01:10.768Z,95318.19
2023-03-02T00:03:40.998Z,95321.78
2023-03-02T00:06:09.221Z,95318.16
2023-03-02T00:08:38.083Z,95329.78
2023-03-02T00:11:04.866Z,95327.41
2023-03-02T00:13:51.395Z,95320.38
2023-03-02T00:16:18.088Z,95317.56
2023-03-02T00:18:44.922Z,95307.06
2023-03-02T00:21:11.485Z,95316.28
2023-03-02T00:23:38.237Z,95315.97
2023-03-02T00:26:06.156Z,95320.50
2023-03-02T00:28:33.988Z,95316.09
2023-03-02T00:31:04.548Z,95316.78
2023-03-02T00:33:32.325Z,95316.44
2023-03-02T00:35:58.878Z,95310.88
2023-03-02T00:38:25.392Z,95314.97
2023-03-02T00:40:51.874Z,95315.78
2023-03-02T00:43:18.343Z,95308.59
2023-03-02T00:45:45.145Z,95304.88
2023-03-02T00:48:11.633Z,95304.75
2023-03-02T00:50:38.279Z,95303.09
2023-03-02T00:53:04.916Z,95305.00
2023-03-02T00:55:31.422Z,95303.22
2023-03-02T00:57:57.898Z,95305.75
2023-03-02T01:00:24.672Z,95296.56
2023-03-02T01:02:51.211Z,95293.53
2023-03-02T01:05:17.885Z,95297.38
2023-03-02T01:07:44.432Z,95302.03
2023-03-02T01:10:11.613Z,95295.47
2023-03-02T01:12:38.355Z,95293.03
2023-03-02T01:15:06.449Z,95295.78
2023-03-02T01:21:20.365Z,95306.78
2023-03-02T01:23:46.885Z,95303.28
2023-03-02T01:26:13.524Z,95299.69
2023-03-02T01:28:40.056Z,95286.78
2023-03-02T01:31:06.600Z,95284.13
2023-03-02T01:33:33.138Z,95287.75
2023-03-02T01:35:59.801Z,95289.34
2023-03-02T01:38:26.583Z,95288.53
2023-03-02T01:40:53.152Z,95287.97
2023-03-02T01:43:19.821Z,95288.47
2023-03-02T01:46:06.956Z,95292.56
2023-03-02T01:48:42.702Z,95295.97
2023-03-02T01:51:16.197Z,95298.03
2023-03-02T01:53:47.986Z,95299.44
2023-03-02T01:56:21.463Z,95279.41
2023-03-02T01:58:54.072Z,95281.63
2023-03-02T02:01:21.890Z,95288.53
2023-03-02T02:03:51.072Z,95293.47
2023-03-02T02:06:24.105Z,95288.84
2023-03-02T02:08:54.407Z,95286.00
2023-03-02T02:11:20.959Z,95289.69
2023-03-02T02:13:47.954Z,95284.47
2023-03-02T02:16:14.534Z,95282.81
2023-03-02T02:18:44.295Z,95285.84
2023-03-02T02:21:11.622Z,95283.63
2023-03-02T02:24:23.037Z,95285.03
2023-03-02T02:26:52.911Z,95292.44
2023-03-02T02:29:32.215Z,95279.28
2023-03-02T02:32:15.775Z,95276.81
2023-03-02T02:34:47.358Z,95282.72
2023-03-02T02:37:25.854Z,95279.25
2023-03-02T02:39:52.536Z,95293.53
2023-03-02T02:42:34.026Z,95287.78
2023-03-02T02:45:06.696Z,95291.63
2023-03-02T02:47:34.094Z,95285.59
2023-03-02T02:50:01.147Z,95280.78
2023-03-02T02:52:29.383Z,95283.38
2023-03-02T02:54:58.308Z,95285.03
2023-03-02T02:57:29.754Z,95290.66
2023-03-02T03:00:00.233Z,95288.88
2023-03-02T03:02:32.973Z,95285.56
2023-03-02T03:04:59.506Z,95289.16
2023-03-02T03:07:26.106Z,95288.03
2023-03-02T03:10:24.544Z,95279.25
2023-03-02T03:12:51.639Z,95290.50
2023-03-02T03:15:18.836Z,95297.63
2023-03-02T03:17:54.178Z,95292.28
2023-03-02T03:20:22.643Z,95288.84
2023-03-02T03:22:49.140Z,95292.97
2023-03-02T03:25:15.728Z,95295.75
2023-03-02T03:27:42.986Z,95299.00
2023-03-02T03:30:14.700Z,95306.69
2023-03-02T03:32:41.524Z,95303.38
2023-03-02T03:35:08.897Z,95303.13
2023-03-02T03:37:36.478Z,95306.16
2023-03-02T03:40:03.313Z,95307.91
2023-03-02T03:42:29.808Z,95307.78
2023-03-02T03:44:56.354Z,95305.88
2023-03-02T03:47:22.894Z,95298.34
2023-03-02T03:49:49.395Z,95301.22
2023-03-02T03:52:15.909Z,95298.63
2023-03-02T03:54:42.413Z,95297.13
2023-03-02T03:57:08.892Z,95301.50
2023-03-02T03:59:35.358Z,95298.47
2023-03-02T04:02:02.443Z,95297.75
2023-03-02T04:04:33.917Z,95301.16
2023-03-02T04:07:00.773Z,95300.88
2023-03-02T04:09:27.539Z,95298.94
2023-03-02T04:11:56.983Z,95304.75
2023-03-02T04:14:24.799Z,95303.75
2023-03-02T04:16:52.106Z,95309.66
2023-03-02T04:19:18.944Z,95312.28
2023-03-02T04:21:49.106Z,95302.25
2023-03-02T04:24:17.484Z,95301.50
2023-03-02T04:26:45.684Z,95303.16
2023-03-02T04:29:13.756Z,95306.97
2023-03-02T04:31:40.916Z,95310.53
2023-03-02T04:34:08.638Z,95318.63
2023-03-02T04:36:39.073Z,95315.19
2023-03-02T04:39:07.085Z,95326.97
2023-03-02T04:41:34.150Z,95326.84
2023-03-02T04:44:00.645Z,95323.09
2023-03-02T04:46:28.185Z,95323.28
2023-03-02T04:48:55.305Z,95337.44
2023-03-02T04:51:29.528Z,95340.16
2023-03-02T04:53:59.741Z,95336.84
2023-03-02T04:56:26.891Z,95344.06
2023-03-02T04:58:53.444Z,95342.41
2023-03-02T05:01:20.900Z,95333.03
2023-03-02T05:03:48.337Z,95345.72
2023-03-02T05:06:15.604Z,95336.00
2023-03-02T05:08:42.936Z,95345.59
2023-03-02T05:11:12.936Z,95344.13
2023-03-02T05:13:39.423Z,95345.63
2023-03-02T05:16:06.155Z,95329.97
2023-03-02T05:18:32.733Z,95336.47
2023-03-02T05:20:59.203Z,95341.00
2023-03-02T05:23:26.053Z,95337.28
2023-03-02T05:25:56.194Z,95341.25
2023-03-02T05:28:25.288Z,95352.81
2023-03-02T05:30:52.670Z,95358.38
2023-03-02T05:33:20.189Z,95350.81
2023-03-02T05:35:47.336Z,95351.34
2023-03-02T05:38:14.778Z,95348.22
2023-03-02T05:40:41.549Z,95350.28
2023-03-02T05:43:08.833Z,95354.41
2023-03-02T05:45:38.272Z,95348.75
2023-03-02T05:48:05.750Z,95356.72
2023-03-02T05:50:32.285Z,95354.59
2023-03-02T05:52:59.177Z,95358.72
2023-03-02T05:55:26.503Z,95356.56
2023-03-02T05:57:52.983Z,95358.25
2023-03-02T06:00:20.702Z,95370.41
2023-03-02T06:02:47.784Z,95372.97
2023-03-02T06:05:17.878Z,95374.47
2023-03-02T06:07:45.032Z,95381.22
2023-03-02T06:10:12.942Z,95391.63
2023-03-02T06:12:40.092Z,95392.34
2023-03-02T06:15:07.824Z,95389.28
2023-03-02T06:17:34.686Z,95385.53
2023-03-02T06:20:01.286Z,95392.84
2023-03-02T06:22:27.863Z,95388.31
2023-03-02T06:24:54.524Z,95398.66
2023-03-02T06:27:21.370Z,95396.44
2023-03-02T06:29:47.859Z,95400.44
2023-03-02T06:32:14.455Z,95409.31
2023-03-02T06:34:41.052Z,95396.91
2023-03-02T06:37:07.567Z,95399.44
2023-03-02T06:39:34.102Z,95400.41
2023-03-02T06:42:03.504Z,95404.19
2023-03-02T06:45:08.953Z,95403.88
2023-03-02T06:47:39.152Z,95406.06
2023-03-02T06:50:06.316Z,95404.91
2023-03-02T06:52:33.268Z,95415.88
2023-03-02T06:55:03.018Z,95419.47
2023-03-02T06:57:29.641Z,95416.50
2023-03-02T06:59:56.110Z,95415.97
2023-03-02T07:02:22.606Z,95418.94
2023-03-02T07:04:49.124Z,95421.16
2023-03-02T07:07:15.615Z,95415.13
2023-03-02T07:09:42.258Z,95418.41
2023-03-02T07:12:08.781Z,95418.41
2023-03-02T07:14:35.849Z,95418.69
2023-03-02T07:17:05.171Z,95426.25
2023-03-02T07:19:31.694Z,95435.16
2023-03-02T07:21:58.168Z,95435.16
2023-03-02T07:24:24.682Z,95439.81
2023-03-02T07:26:51.260Z,95446.72
2023-03-02T07:29:17.723Z,95445.03
2023-03-02T07:31:44.249Z,95439.84
2023-03-02T07:34:10.760Z,95432.19
2023-03-02T07:36:37.242Z,95432.69
2023-03-02T07:39:04.227Z,95434.06
2023-03-02T07:41:31.150Z,95424.75
2023-03-02T07:43:57.909Z,95427.47
2023-03-02T07:46:24.463Z,95437.50
2023-03-02T07:48:51.017Z,95432.69
2023-03-02T07:51:17.532Z,95437.47
2023-03-02T07:53:44.179Z,95439.25
2023-03-02T07:56:11.660Z,95450.53
2023-03-02T07:58:38.407Z,95446.59
2023-03-02T08:01:05.110Z,95453.88
2023-03-02T08:03:31.630Z,95455.50
2023-03-02T08:05:58.128Z,95455.75
2023-03-02T08:08:24.758Z,95462.31
2023-03-02T08:10:51.377Z,95461.78
2023-03-02T08:13:17.871Z,95452.19
2023-03-02T08:15:44.410Z,95465.19
2023-03-02T08:18:10.898Z,95466.19
2023-03-02T08:20:37.513Z,95474.66
2023-03-02T08:23:04.060Z,95476.59
2023-03-02T08:25:30.573Z,95477.88
2023-03-02T08:27:57.045Z,95473.34
2023-03-02T08:30:23.605Z,95477.47
2023-03-02T08:32:50.176Z,95473.06
2023-03-02T08:35:16.740Z,95473.88
2023-03-02T08:37:43.258Z,95479.34
2023-03-02T08:40:10.353Z,95473.28
2023-03-02T08:42:36.926Z,95479.59
2023-03-02T08:45:03.675Z,95479.75
2023-03-02T08:47:30.160Z,95480.72
2023-03-02T08:49:56.641Z,95484.56
2023-03-02T08:52:23.128Z,95467.75
2023-03-02T08:54:49.648Z,95470.56
2023-03-02T08:57:16.229Z,95474.66
2023-03-02T08:59:42.928Z,95472.16
2023-03-02T09:02:11.844Z,95478.75
2023-03-02T09:04:38.481Z,95483.19
2023-03-02T09:07:05.044Z,95485.66
2023-03-02T09:09:31.580Z,95475.16
2023-03-02T09:11:58.106Z,95478.41
2023-03-02T09:14:24.617Z,95475.78
2023-03-02T09:16:51.178Z,95487.88
2023-03-02T09:19:17.944Z,95492.81
2023-03-02T09:21:44.705Z,95496.81
2023-03-02T09:24:11.366Z,95493.94
2023-03-02T09:26:37.842Z,95499.97
2023-03-02T09:29:04.892Z,95494.22
2023-03-02T09:31:31.484Z,95500.34
2023-03-02T09:33:58.165Z,95502.97
2023-03-02T09:36:26.404Z,95499.66
2023-03-02T09:38:53.480Z,95496.63
2023-03-02T09:41:19.983Z,95501.50
2023-03-02T09:44:08.307Z,95497.56
2023-03-02T09:46:47.633Z,95504.03
2023-03-02T09:49:45.101Z,95502.34
2023-03-02T09:52:30.958Z,95504.91
2023-03-02T09:55:11.176Z,95509.22
2023-03-02T09:57:39.091Z,95505.97
2023-03-02T10:00:24.416Z,95504.03
2023-03-02T10:02:53.943Z,95509.19
2023-03-02T10:05:24.933Z,95504.53
2023-03-02T10:07:51.620Z,95514.13
2023-03-02T10:10:18.066Z,95505.97
2023-03-02T10:13:08.815Z,95502.31
2023-03-02T10:15:48.020Z,95504.91
2023-03-02T10:18:23.934Z,95506.47
2023-03-02T10:21:01.827Z,95520.13
2023-03-02T10:23:51.313Z,95510.91
2023-03-02T10:26:34.513Z,95513.84
2023-03-02T10:29:30.183Z,95512.06
2023-03-02T10:32:24.236Z,95522.47
2023-03-02T10:34:53.079Z,95518.41
2023-03-02T10:37:28.212Z,95520.94
2023-03-02T10:39:55.806Z,95524.94
2023-03-02T10:42:29.772Z,95524.84
2023-03-02T10:45:21.805Z,95532.03
2023-03-02T10:47:48.338Z,95542.06
2023-03-02T10:50:22.376Z,95538.88
2023-03-02T10:52:59.533Z,95536.59
2023-03-02T10:55:27.203Z,95532.34
2023-03-02T10:58:02.362Z,95528.88
2023-03-02T11:00:31.462Z,95526.53
2023-03-02T11:03:19.443Z,95529.94
2023-03-02T11:05:45.921Z,95531.38
2023-03-02T11:08:27.832Z,95531.06
2023-03-02T11:11:03.818Z,95522.31
2023-03-02T11:13:36.218Z,95522.16
2023-03-02T11:16:06.645Z,95523.22
2023-03-02T11:19:05.061Z,95528.53
2023-03-02T11:21:38.977Z,95529.03
2023-03-02T11:24:20.487Z,95528.00
2023-03-02T11:26:52.707Z,95526.06
2023-03-02T11:29:25.001Z,95515.72
2023-03-02T11:31:58.737Z,95522.94
2023-03-02T11:34:48.905Z,95528.75
2023-03-02T11:37:21.238Z,95519.19
2023-03-02T11:39:55.161Z,95515.59
2023-03-02T11:42:31.005Z,95518.59
2023-03-02T11:45:02.823Z,95516.41
2023-03-02T11:47:32.301Z,95513.81
2023-03-02T11:50:04.440Z,95514.75
2023-03-02T11:52:37.656Z,95511.22
2023-03-02T11:55:13.203Z,95511.63
2023-03-02T11:57:48.779Z,95508.81
2023-03-02T12:00:26.201Z,95512.34
2023-03-02T12:03:07.309Z,95512.91
2023-03-02T12:05:38.643Z,95508.53
2023-03-02T12:08:20.372Z,95512.16
2023-03-02T12:10:58.929Z,95509.88
2023-03-02T12:13:57.442Z,95512.50
2023-03-02T12:16:43.550Z,95501.06
2023-03-02T12:19:12.681Z,95503.63
2023-03-02T12:21:41.755Z,95503.78
2023-03-02T12:24:25.303Z,95500.78
2023-03-02T12:27:10.225Z,95501.22
2023-03-02T12:29:45.869Z,95490.81
2023-03-02T12:32:18.274Z,95481.19
2023-03-02T12:35:02.794Z,95491.38
2023-03-02T12:37:49.621Z,95486.22
2023-03-02T12:40:39.109Z,95477.66
2023-03-02T12:43:27.242Z,95478.56
2023-03-02T12:46:10.405Z,95476.47
2023-03-02T12:48:47.522Z,95475.75
2023-03-02T12:51:21.566Z,95466.47
2023-03-02T12:53:48.989Z,95465.97
2023-03-02T12:56:26.466Z,95464.44
2023-03-02T12:58:54.286Z,95464.25
2023-03-02T13:01:23.845Z,95457.81
2023-03-02T13:03:51.265Z,95461.00
2023-03-02T13:06:20.273Z,95449.34
2023-03-02T13:08:52.557Z,95440.22
2023-03-02T13:11:33.030Z,95442.44
2023-03-02T13:14:01.619Z,95441.84
2023-03-02T13:16:31.905Z,95448.06
2023-03-02T13:19:02.201Z,95448.06
2023-03-02T13:21:36.290Z,95451.22
2023-03-02T13:24:02.885Z,95450.47
2023-03-02T13:26:37.182Z,95452.41
2023-03-02T13:29:06.927Z,95446.19
2023-03-02T13:31:34.813Z,95439.97
2023-03-02T13:34:01.512Z,95447.84
2023-03-02T13:36:36.019Z,95437.63
2023-03-02T13:39:07.024Z,95435.31
2023-03-02T13:41:36.214Z,95439.84
2023-03-02T13:44:19.532Z,95433.00
2023-03-02T13:46:47.369Z,95438.88
2023-03-02T13:49:24.638Z,95431.69
2023-03-02T13:52:01.201Z,95422.13
2023-03-02T13:54:32.869Z,95426.56
2023-03-02T13:57:03.030Z,95420.88
2023-03-02T13:59:30.234Z,95423.09
2023-03-02T14:01:56.767Z,95422.25
2023-03-02T14:04:23.934Z,95423.50
2023-03-02T14:06:52.873Z,95424.53
2023-03-02T14:09:20.699Z,95421.81
2023-03-02T14:11:52.557Z,95415.50
2023-03-02T14:14:23.027Z,95412.03
2023-03-02T14:16:50.815Z,95414.22
2023-03-02T14:19:18.009Z,95415.66
2023-03-02T14:21:45.806Z,95415.50
2023-03-02T14:24:12.296Z,95422.41
2023-03-02T14:26:44.849Z,95415.41
2023-03-02T14:29:29.753Z,95411.00
2023-03-02T14:31:59.227Z,95413.47
2023-03-02T14:34:26.327Z,95413.25
2023-03-02T14:36:58.846Z,95403.78
2023-03-02T14:39:40.690Z,95402.41
2023-03-02T14:42:17.022Z,95405.41
2023-03-02T14:44:45.401Z,95404.81
2023-03-02T14:47:12.518Z,95396.88
2023-03-02T14:49:39.404Z,95397.66
2023-03-02T14:52:46.690Z,95396.50
2023-03-02T14:55:24.402Z,95403.69
2023-03-02T14:58:05.020Z,95403.47
2023-03-02T15:00:31.798Z,95408.00
2023-03-02T15:02:58.787Z,95406.00
2023-03-02T15:05:25.408Z,95405.63
2023-03-02T15:07:51.929Z,95410.88
2023-03-02T15:10:21.023Z,95395.81
2023-03-02T15:12:47.640Z,95394.94
2023-03-02T15:15:14.150Z,95402.34
2023-03-02T15:17:41.272Z,95409.25
2023-03-02T15:20:13.147Z,95401.88
2023-03-02T15:22:39.626Z,95397.34
2023-03-02T15:25:06.404Z,95406.69
2023-03-02T15:27:32.969Z,95405.81
2023-03-02T15:29:59.569Z,95408.06
2023-03-02T15:32:26.161Z,95406.69
2023-03-02T15:34:52.625Z,95410.78
2023-03-02T15:37:19.221Z,95402.88
2023-03-02T15:39:52.880Z,95408.03
2023-03-02T15:42:19.654Z,95406.84
2023-03-02T15:44:48.744Z,95401.19
2023-03-02T15:47:15.299Z,95399.69
2023-03-02T15:49:41.765Z,95405.53
2023-03-02T15:52:09.774Z,95401.16
2023-03-02T15:54:36.260Z,95406.84
2023-03-02T15:57:02.842Z,95405.00
2023-03-02T15:59:31.263Z,95400.56
2023-03-02T16:01:58.499Z,95406.94
2023-03-02T16:04:26.633Z,95405.06
2023-03-02T16:06:53.164Z,95402.63
2023-03-02T16:09:19.696Z,95411.25
2023-03-02T16:11:48.878Z,95409.97
2023-03-02T16:14:15.409Z,95408.09
2023-03-02T16:16:43.464Z,95410.53
2023-03-02T16:19:12.869Z,95410.16
2023-03-02T16:21:39.488Z,95408.81
2023-03-02T16:24:07.234Z,95424.22
2023-03-02T16:26:36.706Z,95420.69
2023-03-02T16:29:05.777Z,95424.03
2023-03-02T16:31:32.355Z,95425.19
2023-03-02T16:33:59.209Z,95431.22
2023-03-02T16:36:27.403Z,95434.53
2023-03-02T16:38:53.877Z,95434.69
2023-03-02T16:41:23.285Z,95437.66
2023-03-02T16:43:58.850Z,95438.06
2023-03-02T16:46:28.686Z,95433.06
2023-03-02T16:48:56.412Z,95437.38
2023-03-02T16:51:22.909Z,95437.69
2023-03-02T16:53:50.166Z,95444.97
2023-03-02T16:56:16.710Z,95445.50
2023-03-02T16:58:43.616Z,95446.09
2023-03-02T17:01:13.677Z,95447.13
2023-03-02T17:03:41.021Z,95453.78
2023-03-02T17:06:10.913Z,95456.97
2023-03-02T17:08:37.838Z,95454.03
2023-03-02T17:11:04.515Z,95449.91
2023-03-02T17:13:31.027Z,95457.19
2023-03-02T17:15:58.498Z,95461.50
2023-03-02T17:18:26.328Z,95469.41
2023-03-02T17:20:55.027Z,95462.59
2023-03-02T17:23:22.034Z,95479.03
2023-03-02T17:25:48.599Z,95478.88
2023-03-02T17:28:15.494Z,95483.81
2023-03-02T17:30:43.260Z,95484.94
2023-03-02T17:33:10.364Z,95484.31
2023-03-02T17:35:37.473Z,95488.25
2023-03-02T17:38:04.751Z,95498.75
2023-03-02T17:40:32.193Z,95500.91
2023-03-02T17:42:58.735Z,95498.75
2023-03-02T17:45:27.543Z,95507.28
2023-03-02T17:47:55.160Z,95510.91
2023-03-02T17:50:23.187Z,95523.38
2023-03-02T17:52:49.772Z,95515.81
2023-03-02T17:55:16.555Z,95512.19
2023-03-02T17:57:43.086Z,95523.53
2023-03-02T18:00:14.918Z,95534.84
2023-03-02T18:02:41.416Z,95533.19
2023-03-02T18:05:08.649Z,95526.31
2023-03-02T18:07:38.707Z,95537.41
2023-03-02T18:10:06.646Z,95540.72
2023-03-02T18:12:34.071Z,95547.28
2023-03-02T18:15:00.554Z,95541.19
2023-03-02T18:17:27.077Z,95549.56
2023-03-02T18:19:53.563Z,95555.88
2023-03-02T18:22:20.050Z,95554.16
2023-03-02T18:24:46.525Z,95564.97
2023-03-02T18:27:13.143Z,95553.47
2023-03-02T18:29:39.649Z,95557.06
2023-03-02T18:32:06.267Z,95557.97
2023-03-02T18:34:32.794Z,95564.38
2023-03-02T18:36:59.416Z,95567.47
2023-03-02T18:39:25.948Z,95565.63
2023-03-02T18:41:52.455Z,95566.03
2023-03-02T18:44:19.297Z,95566.78
2023-03-02T18:46:46.080Z,95570.94
2023-03-02T18:49:12.726Z,95578.97
2023-03-02T18:51:40.098Z,95577.63
2023-03-02T18:54:06.589Z,95571.34
2023-03-02T18:56:33.117Z,95575.81
2023-03-02T18:58:59.605Z,95578.06
2023-03-02T19:01:31.390Z,95572.81
2023-03-02T19:03:57.990Z,95575.59
2023-03-02T19:06:24.961Z,95576.78
2023-03-02T19:08:51.570Z,95579.78
2023-03-02T19:11:18.084Z,95581.66
2023-03-02T19:13:44.655Z,95578.88
2023-03-02T19:16:11.178Z,95583.22
2023-03-02T19:18:37.810Z,95582.41
2023-03-02T19:21:05.185Z,95589.06
2023-03-02T19:23:32.500Z,95591.44
2023-03-02T19:26:00.278Z,95590.47
2023-03-02T19:28:26.932Z,95586.59
2023-03-02T19:30:53.468Z,95581.59
2023-03-02T19:33:20.017Z,95583.88
2023-03-02T19:35:46.632Z,95591.63
2023-03-02T19:38:13.140Z,95591.28
2023-03-02T19:40:40.129Z,95580.81
2023-03-02T19:43:06.702Z,95591.00
2023-03-02T19:45:33.880Z,95580.00
2023-03-02T19:48:00.711Z,95583.66
2023-03-02T19:50:28.141Z,95585.03
2023-03-02T19:52:56.049Z,95582.53
2023-03-02T19:55:24.013Z,95585.03
2023-03-02T19:57:51.770Z,95583.59
2023-03-02T20:00:18.925Z,95590.63
2023-03-02T20:02:47.028Z,95578.81
2023-03-02T20:05:14.727Z,95579.69
2023-03-02T20:07:42.023Z,95588.44
2023-03-02T20:10:10.375Z,95586.81
2023-03-02T20:12:37.313Z,95590.09
2023-03-02T20:15:05.914Z,95580.22
2023-03-02T20:17:32.624Z,95586.81
2023-03-02T20:19:59.134Z,95593.75
2023-03-02T20:22:25.622Z,95588.75
2023-03-02T20:24:52.250Z,95587.41
2023-03-02T20:27:18.833Z,95593.97
2023-03-02T20:29:45.684Z,95599.81
2023-03-02T20:32:13.180Z,95599.34
2023-03-02T20:34:41.428Z,95598.06
2023-03-02T20:37:08.152Z,95600.41
2023-03-02T20:39:38.724Z,95603.41
2023-03-02T20:42:06.888Z,95603.69
2023-03-02T20:44:34.882Z,95607.28
2023-03-02T20:47:06.356Z,95604.28
2023-03-02T20:49:33.117Z,95609.09
2023-03-02T20:52:00.838Z,95609.75
2023-03-02T20:54:31.722Z,95617.75
2023-03-02T20:56:58.997Z,95623.00
2023-03-02T20:59:26.936Z,95616.72
2023-03-02T21:01:53.575Z,95623.03
2023-03-02T21:04:22.009Z,95628.81
2023-03-02T21:06:48.699Z,95624.16
2023-03-02T21:09:15.963Z,95616.66
2023-03-02T21:11:42.471Z,95618.69
2023-03-02T21:14:09.094Z,95623.13
2023-03-02T21:16:38.837Z,95620.91
2023-03-02T21:19:09.456Z,95622.72
2023-03-02T21:21:41.725Z,95631.09
2023-03-02T21:24:11.227Z,95624.50
2023-03-02T21:26:38.091Z,95620.91
2023-03-02T21:29:05.374Z,95624.00
2023-03-02T21:31:32.185Z,95630.59
2023-03-02T21:33:58.766Z,95619.09
2023-03-02T21:36:25.707Z,95625.19
2023-03-02T21:38:52.661Z,95624.66
2023-03-02T21:41:19.386Z,95624.22
2023-03-02T21:43:46.074Z,95613.03
2023-03-02T21:46:15.065Z,95617.22
2023-03-02T21:48:41.965Z,95617.72
2023-03-02T21:51:11.260Z,95616.88
2023-03-02T21:53:37.812Z,95619.13
2023-03-02T21:56:04.639Z,95621.31
2023-03-02T21:58:31.141Z,95616.94
2023-03-02T22:00:57.648Z,95613.72
2023-03-02T22:03:33.263Z,95616.94
2023-03-02T22:05:59.728Z,95609.47
2023-03-02T22:08:26.219Z,95612.47
2023-03-02T22:10:52.685Z,95608.03
2023-03-02T22:13:29.983Z,95605.69
2023-03-02T22:16:10.864Z,95616.28
2023-03-02T22:18:37.493Z,95611.34
2023-03-02T22:21:26.356Z,95617.75
2023-03-02T22:24:08.088Z,95611.28
2023-03-02T22:26:42.182Z,95612.22
2023-03-02T22:29:25.314Z,95609.75
2023-03-02T22:31:55.256Z,95604.50
2023-03-02T22:34:28.280Z,95615.28
2023-03-02T22:36:58.751Z,95608.41
2023-03-02T22:39:32.481Z,95608.16
2023-03-02T22:42:06.437Z,95605.72
2023-03-02T22:44:32.956Z,95606.78
2023-03-02T22:47:00.367Z,95604.88
2023-03-02T22:49:28.080Z,95604.06
2023-03-02T22:51:57.651Z,95597.75
2023-03-02T22:54:36.387Z,95599.13
2023-03-02T22:57:03.532Z,95601.22
2023-03-02T22:59:36.528Z,95602.19
2023-03-02T23:02:15.168Z,95597.78
2023-03-02T23:04:47.580Z,95601.75
2023-03-02T23:07:18.823Z,95600.28
2023-03-02T23:09:46.170Z,95601.38
2023-03-02T23:12:27.971Z,95603.03
2023-03-02T23:14:57.044Z,95607.41
2023-03-02T23:17:37.831Z,95608.25
2023-03-02T23:20:12.513Z,95599.72
2023-03-02T23:22:39.683Z,95593.69
2023-03-02T23:25:07.478Z,95596.97
2023-03-02T23:27:33.978Z,95608.00
2023-03-02T23:30:00.565Z,95605.75
2023-03-02T23:32:27.145Z,95606.75
2023-03-02T23:34:53.678Z,95604.69
2023-03-02T23:37:20.147Z,95605.47
2023-03-02T23:39:46.669Z,95600.88
2023-03-02T23:42:13.278Z,95604.47
2023-03-02T23:44:39.747Z,95608.63
2023-03-02T23:47:06.258Z,95607.03
2023-03-02T23:49:32.729Z,95609.00
2023-03-02T23:51:59.236Z,95602.03
2023-03-02T23:54:25.792Z,95597.00
2023-03-02T23:56:52.256Z,95602.63
2023-03-02T23:59:18.854Z,95608.72
